sensor_id;sensor_type;location;lat;lon;timestamp;P1;durP1;ratioP1;P2;durP2;ratioP2
44664;SDS011;30382;48.802;9.388;2023-06-14T00:01:41;4.93;;;4.43;;
44664;SDS011;30382;48.802;9.388;2023-06-14T00:42:51;4.47;;;4.15;;
44664;SDS011;30382;48.802;9.388;2023-06-14T00:45:35;5.43;;;4.90;;
44664;SDS011;30382;48.802;9.388;2023-06-14T00:48:19;5.30;;;4.80;;
44664;SDS011;30382;48.802;9.388;2023-06-14T00:51:04;4.70;;;4.30;;
44664;SDS011;30382;48.802;9.388;2023-06-14T00:53:50;6.80;;;4.65;;
44664;SDS011;30382;48.802;9.388;2023-06-14T00:56:35;6.72;;;4.68;;
44664;SDS011;30382;48.802;9.388;2023-06-14T00:59:19;5.83;;;4.60;;
44664;SDS011;30382;48.802;9.388;2023-06-14T01:02:04;7.25;;;4.60;;
44664;SDS011;30382;48.802;9.388;2023-06-14T01:04:49;4.78;;;4.38;;
44664;SDS011;30382;48.802;9.388;2023-06-14T01:07:41;5.63;;;4.67;;
44664;SDS011;30382;48.802;9.388;2023-06-14T01:10:31;5.30;;;4.70;;
44664;SDS011;30382;48.802;9.388;2023-06-14T01:13:20;5.00;;;4.60;;
44664;SDS011;30382;48.802;9.388;2023-06-14T01:16:07;5.80;;;4.87;;
44664;SDS011;30382;48.802;9.388;2023-06-14T01:18:52;5.35;;;4.68;;
44664;SDS011;30382;48.802;9.388;2023-06-14T01:21:36;5.13;;;4.63;;
44664;SDS011;30382;48.802;9.388;2023-06-14T01:24:25;5.40;;;4.57;;
44664;SDS011;30382;48.802;9.388;2023-06-14T01:27:12;5.25;;;4.75;;
44664;SDS011;30382;48.802;9.388;2023-06-14T01:29:57;5.15;;;4.65;;
44664;SDS011;30382;48.802;9.388;2023-06-14T01:32:43;5.63;;;5.13;;
44664;SDS011;30382;48.802;9.388;2023-06-14T01:35:28;4.70;;;4.30;;
44664;SDS011;30382;48.802;9.388;2023-06-14T01:38:13;5.00;;;4.50;;
44664;SDS011;30382;48.802;9.388;2023-06-14T01:40:58;5.40;;;4.90;;
44664;SDS011;30382;48.802;9.388;2023-06-14T01:43:43;5.30;;;4.80;;
44664;SDS011;30382;48.802;9.388;2023-06-14T01:46:29;5.03;;;4.53;;
44664;SDS011;30382;48.802;9.388;2023-06-14T01:49:14;5.60;;;4.65;;
44664;SDS011;30382;48.802;9.388;2023-06-14T01:51:58;5.82;;;5.22;;
44664;SDS011;30382;48.802;9.388;2023-06-14T01:54:42;6.10;;;5.60;;
44664;SDS011;30382;48.802;9.388;2023-06-14T01:57:27;5.63;;;5.03;;
44664;SDS011;30382;48.802;9.388;2023-06-14T02:00:12;6.10;;;5.60;;
44664;SDS011;30382;48.802;9.388;2023-06-14T02:02:57;5.53;;;5.00;;
44664;SDS011;30382;48.802;9.388;2023-06-14T02:05:41;5.70;;;5.10;;
44664;SDS011;30382;48.802;9.388;2023-06-14T02:08:25;5.80;;;5.20;;
44664;SDS011;30382;48.802;9.388;2023-06-14T02:11:10;6.00;;;5.07;;
44664;SDS011;30382;48.802;9.388;2023-06-14T02:13:54;5.15;;;4.70;;
44664;SDS011;30382;48.802;9.388;2023-06-14T02:16:39;5.73;;;5.23;;
44664;SDS011;30382;48.802;9.388;2023-06-14T02:19:23;5.80;;;5.30;;
44664;SDS011;30382;48.802;9.388;2023-06-14T02:22:08;5.40;;;4.90;;
44664;SDS011;30382;48.802;9.388;2023-06-14T02:24:52;6.00;;;5.50;;
44664;SDS011;30382;48.802;9.388;2023-06-14T02:27:37;5.95;;;5.45;;
44664;SDS011;30382;48.802;9.388;2023-06-14T02:30:21;6.00;;;5.10;;
44664;SDS011;30382;48.802;9.388;2023-06-14T02:33:06;5.78;;;5.28;;
44664;SDS011;30382;48.802;9.388;2023-06-14T02:35:50;6.10;;;5.20;;
44664;SDS011;30382;48.802;9.388;2023-06-14T02:38:35;5.43;;;5.03;;
44664;SDS011;30382;48.802;9.388;2023-06-14T02:41:19;5.80;;;5.30;;
44664;SDS011;30382;48.802;9.388;2023-06-14T02:44:03;5.78;;;5.13;;
44664;SDS011;30382;48.802;9.388;2023-06-14T02:46:48;5.57;;;5.00;;
44664;SDS011;30382;48.802;9.388;2023-06-14T02:49:32;6.00;;;5.50;;
44664;SDS011;30382;48.802;9.388;2023-06-14T02:52:17;5.65;;;4.70;;
44664;SDS011;30382;48.802;9.388;2023-06-14T02:55:01;6.30;;;5.60;;
44664;SDS011;30382;48.802;9.388;2023-06-14T02:57:45;5.72;;;5.22;;
44664;SDS011;30382;48.802;9.388;2023-06-14T03:00:32;5.20;;;4.70;;
44664;SDS011;30382;48.802;9.388;2023-06-14T03:03:17;6.70;;;4.93;;
44664;SDS011;30382;48.802;9.388;2023-06-14T03:06:07;4.80;;;4.30;;
44664;SDS011;30382;48.802;9.388;2023-06-14T03:08:54;5.22;;;4.82;;
44664;SDS011;30382;48.802;9.388;2023-06-14T03:11:40;6.40;;;5.30;;
44664;SDS011;30382;48.802;9.388;2023-06-14T03:14:26;5.50;;;5.00;;
44664;SDS011;30382;48.802;9.388;2023-06-14T03:17:11;5.95;;;5.45;;
44664;SDS011;30382;48.802;9.388;2023-06-14T03:19:57;7.80;;;5.43;;
44664;SDS011;30382;48.802;9.388;2023-06-14T03:22:43;5.97;;;5.37;;
44664;SDS011;30382;48.802;9.388;2023-06-14T03:25:30;6.13;;;5.53;;
44664;SDS011;30382;48.802;9.388;2023-06-14T03:28:15;5.70;;;5.20;;
44664;SDS011;30382;48.802;9.388;2023-06-14T03:31:00;5.60;;;5.00;;
44664;SDS011;30382;48.802;9.388;2023-06-14T03:33:48;7.30;;;5.68;;
44664;SDS011;30382;48.802;9.388;2023-06-14T03:36:33;5.90;;;5.23;;
44664;SDS011;30382;48.802;9.388;2023-06-14T03:39:18;6.63;;;5.43;;
44664;SDS011;30382;48.802;9.388;2023-06-14T03:42:03;5.60;;;5.10;;
44664;SDS011;30382;48.802;9.388;2023-06-14T03:44:48;5.10;;;4.70;;
44664;SDS011;30382;48.802;9.388;2023-06-14T03:47:33;6.10;;;5.47;;
44664;SDS011;30382;48.802;9.388;2023-06-14T03:50:18;5.80;;;5.20;;
44664;SDS011;30382;48.802;9.388;2023-06-14T03:53:03;5.65;;;4.70;;
44664;SDS011;30382;48.802;9.388;2023-06-14T03:55:50;6.07;;;5.55;;
44664;SDS011;30382;48.802;9.388;2023-06-14T03:58:36;6.80;;;5.85;;
44664;SDS011;30382;48.802;9.388;2023-06-14T04:01:21;5.20;;;4.80;;
44664;SDS011;30382;48.802;9.388;2023-06-14T04:04:09;5.72;;;5.22;;
44664;SDS011;30382;48.802;9.388;2023-06-14T04:06:57;6.00;;;5.30;;
44664;SDS011;30382;48.802;9.388;2023-06-14T04:09:42;6.35;;;5.75;;
44664;SDS011;30382;48.802;9.388;2023-06-14T04:12:27;6.70;;;6.00;;
44664;SDS011;30382;48.802;9.388;2023-06-14T04:15:11;6.65;;;5.75;;
44664;SDS011;30382;48.802;9.388;2023-06-14T04:17:56;7.00;;;5.87;;
44664;SDS011;30382;48.802;9.388;2023-06-14T04:20:42;5.78;;;5.28;;
44664;SDS011;30382;48.802;9.388;2023-06-14T04:23:27;5.90;;;5.40;;
44664;SDS011;30382;48.802;9.388;2023-06-14T04:26:12;6.87;;;5.27;;
44664;SDS011;30382;48.802;9.388;2023-06-14T04:28:58;7.40;;;5.68;;
44664;SDS011;30382;48.802;9.388;2023-06-14T04:31:46;9.00;;;6.10;;
44664;SDS011;30382;48.802;9.388;2023-06-14T04:34:31;6.22;;;5.43;;
44664;SDS011;30382;48.802;9.388;2023-06-14T04:37:19;9.75;;;6.20;;
44664;SDS011;30382;48.802;9.388;2023-06-14T04:40:06;7.30;;;5.82;;
44664;SDS011;30382;48.802;9.388;2023-06-14T04:42:52;6.27;;;5.67;;
44664;SDS011;30382;48.802;9.388;2023-06-14T04:45:37;6.20;;;5.60;;
44664;SDS011;30382;48.802;9.388;2023-06-14T04:48:24;8.27;;;6.13;;
44664;SDS011;30382;48.802;9.388;2023-06-14T04:51:08;7.38;;;6.28;;
44664;SDS011;30382;48.802;9.388;2023-06-14T04:53:54;6.60;;;5.90;;
44664;SDS011;30382;48.802;9.388;2023-06-14T04:56:42;6.82;;;6.25;;
44664;SDS011;30382;48.802;9.388;2023-06-14T04:59:28;7.20;;;5.43;;
44664;SDS011;30382;48.802;9.388;2023-06-14T05:02:17;7.10;;;6.40;;
44664;SDS011;30382;48.802;9.388;2023-06-14T05:05:01;5.95;;;5.40;;
44664;SDS011;30382;48.802;9.388;2023-06-14T05:07:46;6.30;;;5.70;;
44664;SDS011;30382;48.802;9.388;2023-06-14T05:10:30;7.03;;;5.95;;
44664;SDS011;30382;48.802;9.388;2023-06-14T05:13:14;8.00;;;6.30;;
44664;SDS011;30382;48.802;9.388;2023-06-14T05:15:59;7.40;;;6.70;;
44664;SDS011;30382;48.802;9.388;2023-06-14T05:18:44;7.20;;;6.60;;
44664;SDS011;30382;48.802;9.388;2023-06-14T05:21:30;10.93;;;8.02;;
44664;SDS011;30382;48.802;9.388;2023-06-14T05:24:16;9.50;;;6.55;;
44664;SDS011;30382;48.802;9.388;2023-06-14T05:27:03;7.25;;;6.65;;
44664;SDS011;30382;48.802;9.388;2023-06-14T05:29:48;6.75;;;5.80;;
44664;SDS011;30382;48.802;9.388;2023-06-14T05:32:33;7.68;;;6.10;;
44664;SDS011;30382;48.802;9.388;2023-06-14T05:35:18;8.50;;;6.50;;
44664;SDS011;30382;48.802;9.388;2023-06-14T05:38:02;8.20;;;6.53;;
44664;SDS011;30382;48.802;9.388;2023-06-14T05:40:46;8.00;;;7.20;;
44664;SDS011;30382;48.802;9.388;2023-06-14T05:43:31;8.48;;;7.15;;
44664;SDS011;30382;48.802;9.388;2023-06-14T05:46:15;8.48;;;6.30;;
44664;SDS011;30382;48.802;9.388;2023-06-14T05:49:05;6.82;;;6.13;;
44664;SDS011;30382;48.802;9.388;2023-06-14T05:51:50;8.80;;;7.20;;
44664;SDS011;30382;48.802;9.388;2023-06-14T05:54:34;10.18;;;6.55;;
44664;SDS011;30382;48.802;9.388;2023-06-14T05:57:18;7.67;;;6.97;;
44664;SDS011;30382;48.802;9.388;2023-06-14T06:00:03;7.85;;;7.00;;
44664;SDS011;30382;48.802;9.388;2023-06-14T06:02:56;9.60;;;7.32;;
44664;SDS011;30382;48.802;9.388;2023-06-14T06:05:41;10.27;;;7.32;;
44664;SDS011;30382;48.802;9.388;2023-06-14T06:08:29;9.77;;;7.05;;
44664;SDS011;30382;48.802;9.388;2023-06-14T06:11:14;9.20;;;6.95;;
44664;SDS011;30382;48.802;9.388;2023-06-14T06:13:58;9.20;;;6.60;;
44664;SDS011;30382;48.802;9.388;2023-06-14T06:16:42;10.00;;;6.65;;
44664;SDS011;30382;48.802;9.388;2023-06-14T06:19:27;7.80;;;7.00;;
44664;SDS011;30382;48.802;9.388;2023-06-14T06:22:11;11.55;;;6.70;;
44664;SDS011;30382;48.802;9.388;2023-06-14T06:24:55;8.60;;;7.28;;
44664;SDS011;30382;48.802;9.388;2023-06-14T06:27:40;7.80;;;6.60;;
44664;SDS011;30382;48.802;9.388;2023-06-14T06:30:25;9.27;;;6.00;;
44664;SDS011;30382;48.802;9.388;2023-06-14T06:33:10;9.95;;;6.45;;
44664;SDS011;30382;48.802;9.388;2023-06-14T06:35:54;9.80;;;6.63;;
44664;SDS011;30382;48.802;9.388;2023-06-14T06:38:38;7.03;;;6.32;;
44664;SDS011;30382;48.802;9.388;2023-06-14T06:41:23;7.82;;;5.90;;
44664;SDS011;30382;48.802;9.388;2023-06-14T06:44:07;8.97;;;6.80;;
44664;SDS011;30382;48.802;9.388;2023-06-14T06:46:52;9.27;;;6.53;;
44664;SDS011;30382;48.802;9.388;2023-06-14T06:49:36;8.20;;;6.03;;
44664;SDS011;30382;48.802;9.388;2023-06-14T06:52:20;7.05;;;6.35;;
44664;SDS011;30382;48.802;9.388;2023-06-14T06:55:05;10.32;;;7.05;;
44664;SDS011;30382;48.802;9.388;2023-06-14T06:57:49;10.47;;;6.47;;
44664;SDS011;30382;48.802;9.388;2023-06-14T07:00:38;8.35;;;6.80;;
44664;SDS011;30382;48.802;9.388;2023-06-14T07:03:22;8.15;;;7.03;;
44664;SDS011;30382;48.802;9.388;2023-06-14T07:06:07;8.85;;;7.05;;
44664;SDS011;30382;48.802;9.388;2023-06-14T07:08:51;11.33;;;6.73;;
44664;SDS011;30382;48.802;9.388;2023-06-14T07:11:36;7.80;;;6.10;;
44664;SDS011;30382;48.802;9.388;2023-06-14T07:14:21;9.20;;;6.60;;
44664;SDS011;30382;48.802;9.388;2023-06-14T07:17:07;7.82;;;6.10;;
44664;SDS011;30382;48.802;9.388;2023-06-14T07:19:53;8.90;;;6.35;;
44664;SDS011;30382;48.802;9.388;2023-06-14T07:22:39;7.40;;;6.15;;
44664;SDS011;30382;48.802;9.388;2023-06-14T07:25:25;7.00;;;6.30;;
44664;SDS011;30382;48.802;9.388;2023-06-14T07:28:09;7.80;;;7.00;;
44664;SDS011;30382;48.802;9.388;2023-06-14T07:30:53;11.15;;;6.22;;
44664;SDS011;30382;48.802;9.388;2023-06-14T07:33:38;9.20;;;6.53;;
44664;SDS011;30382;48.802;9.388;2023-06-14T07:36:22;7.00;;;6.30;;
44664;SDS011;30382;48.802;9.388;2023-06-14T07:39:06;7.45;;;5.97;;
44664;SDS011;30382;48.802;9.388;2023-06-14T07:41:50;7.00;;;5.57;;
44664;SDS011;30382;48.802;9.388;2023-06-14T07:44:35;6.75;;;5.68;;
44664;SDS011;30382;48.802;9.388;2023-06-14T07:47:20;7.50;;;6.13;;
44664;SDS011;30382;48.802;9.388;2023-06-14T07:50:04;9.27;;;6.43;;
44664;SDS011;30382;48.802;9.388;2023-06-14T07:52:50;6.63;;;6.03;;
44664;SDS011;30382;48.802;9.388;2023-06-14T07:55:34;6.80;;;6.18;;
44664;SDS011;30382;48.802;9.388;2023-06-14T07:58:20;8.07;;;6.90;;
44664;SDS011;30382;48.802;9.388;2023-06-14T08:01:04;6.40;;;5.80;;
44664;SDS011;30382;48.802;9.388;2023-06-14T08:03:50;8.00;;;6.40;;
44664;SDS011;30382;48.802;9.388;2023-06-14T08:06:34;7.38;;;6.68;;
44664;SDS011;30382;48.802;9.388;2023-06-14T08:09:18;6.60;;;6.00;;
44664;SDS011;30382;48.802;9.388;2023-06-14T08:12:04;7.55;;;6.25;;
44664;SDS011;30382;48.802;9.388;2023-06-14T08:14:51;6.68;;;5.97;;
44664;SDS011;30382;48.802;9.388;2023-06-14T08:17:36;6.47;;;5.88;;
44664;SDS011;30382;48.802;9.388;2023-06-14T08:20:20;7.70;;;6.40;;
44664;SDS011;30382;48.802;9.388;2023-06-14T08:23:05;6.60;;;6.00;;
44664;SDS011;30382;48.802;9.388;2023-06-14T08:25:49;6.30;;;5.70;;
44664;SDS011;30382;48.802;9.388;2023-06-14T08:28:33;8.38;;;5.97;;
44664;SDS011;30382;48.802;9.388;2023-06-14T08:31:18;6.60;;;5.95;;
44664;SDS011;30382;48.802;9.388;2023-06-14T08:34:02;5.97;;;5.47;;
44664;SDS011;30382;48.802;9.388;2023-06-14T08:36:46;6.53;;;5.60;;
44664;SDS011;30382;48.802;9.388;2023-06-14T08:39:31;6.85;;;6.18;;
44664;SDS011;30382;48.802;9.388;2023-06-14T08:42:15;6.22;;;5.60;;
44664;SDS011;30382;48.802;9.388;2023-06-14T08:45:02;6.30;;;5.70;;
44664;SDS011;30382;48.802;9.388;2023-06-14T08:47:48;7.43;;;5.50;;
44664;SDS011;30382;48.802;9.388;2023-06-14T08:50:41;6.32;;;5.55;;
44664;SDS011;30382;48.802;9.388;2023-06-14T08:53:33;5.80;;;5.20;;
44664;SDS011;30382;48.802;9.388;2023-06-14T08:56:18;7.55;;;5.15;;
44664;SDS011;30382;48.802;9.388;2023-06-14T08:59:04;7.68;;;4.70;;
44664;SDS011;30382;48.802;9.388;2023-06-14T09:01:50;5.57;;;5.07;;
44664;SDS011;30382;48.802;9.388;2023-06-14T09:04:36;5.87;;;4.80;;
44664;SDS011;30382;48.802;9.388;2023-06-14T09:07:20;5.88;;;4.97;;
44664;SDS011;30382;48.802;9.388;2023-06-14T09:10:07;6.00;;;5.40;;
44664;SDS011;30382;48.802;9.388;2023-06-14T09:12:51;6.18;;;5.57;;
44664;SDS011;30382;48.802;9.388;2023-06-14T09:15:35;5.88;;;5.38;;
44664;SDS011;30382;48.802;9.388;2023-06-14T09:18:20;7.70;;;5.80;;
44664;SDS011;30382;48.802;9.388;2023-06-14T09:21:05;6.50;;;5.90;;
44664;SDS011;30382;48.802;9.388;2023-06-14T09:23:51;6.40;;;5.50;;
44664;SDS011;30382;48.802;9.388;2023-06-14T09:26:36;6.00;;;5.50;;
44664;SDS011;30382;48.802;9.388;2023-06-14T09:29:22;6.65;;;5.75;;
44664;SDS011;30382;48.802;9.388;2023-06-14T09:32:06;6.78;;;5.50;;
44664;SDS011;30382;48.802;9.388;2023-06-14T09:34:50;5.95;;;5.43;;
44664;SDS011;30382;48.802;9.388;2023-06-14T09:37:35;6.85;;;6.15;;
44664;SDS011;30382;48.802;9.388;2023-06-14T09:40:22;6.30;;;5.30;;
44664;SDS011;30382;48.802;9.388;2023-06-14T09:43:07;7.78;;;5.50;;
44664;SDS011;30382;48.802;9.388;2023-06-14T09:45:54;7.00;;;5.25;;
44664;SDS011;30382;48.802;9.388;2023-06-14T09:48:39;6.83;;;5.30;;
44664;SDS011;30382;48.802;9.388;2023-06-14T09:51:27;7.60;;;5.50;;
44664;SDS011;30382;48.802;9.388;2023-06-14T09:54:14;6.27;;;5.67;;
44664;SDS011;30382;48.802;9.388;2023-06-14T09:56:59;6.25;;;5.10;;
44664;SDS011;30382;48.802;9.388;2023-06-14T09:59:44;5.63;;;5.13;;
44664;SDS011;30382;48.802;9.388;2023-06-14T10:02:34;8.30;;;5.60;;
44664;SDS011;30382;48.802;9.388;2023-06-14T10:05:20;5.95;;;5.35;;
44664;SDS011;30382;48.802;9.388;2023-06-14T10:08:07;7.95;;;4.72;;
44664;SDS011;30382;48.802;9.388;2023-06-14T10:10:52;5.53;;;4.87;;
44664;SDS011;30382;48.802;9.388;2023-06-14T10:13:37;5.43;;;4.93;;
44664;SDS011;30382;48.802;9.388;2023-06-14T10:16:27;7.57;;;5.80;;
44664;SDS011;30382;48.802;9.388;2023-06-14T10:19:17;5.75;;;5.22;;
44664;SDS011;30382;48.802;9.388;2023-06-14T10:24:47;7.90;;;5.30;;
44664;SDS011;30382;48.802;9.388;2023-06-14T10:27:32;7.55;;;5.10;;
44664;SDS011;30382;48.802;9.388;2023-06-14T10:30:17;6.57;;;4.53;;
44664;SDS011;30382;48.802;9.388;2023-06-14T10:33:07;4.75;;;4.35;;
44664;SDS011;30382;48.802;9.388;2023-06-14T10:36:06;5.30;;;4.70;;
44664;SDS011;30382;48.802;9.388;2023-06-14T10:38:59;6.10;;;4.60;;
44664;SDS011;30382;48.802;9.388;2023-06-14T10:41:51;6.50;;;4.70;;
44664;SDS011;30382;48.802;9.388;2023-06-14T11:12:09;5.43;;;4.60;;
44664;SDS011;30382;48.802;9.388;2023-06-14T11:14:54;5.65;;;4.88;;
44664;SDS011;30382;48.802;9.388;2023-06-14T11:17:38;5.00;;;4.60;;
44664;SDS011;30382;48.802;9.388;2023-06-14T11:20:26;19.55;;;6.30;;
44664;SDS011;30382;48.802;9.388;2023-06-14T11:23:11;5.40;;;4.90;;
44664;SDS011;30382;48.802;9.388;2023-06-14T11:25:56;5.60;;;4.95;;
44664;SDS011;30382;48.802;9.388;2023-06-14T11:28:40;6.50;;;4.90;;
44664;SDS011;30382;48.802;9.388;2023-06-14T11:31:25;6.70;;;4.90;;
44664;SDS011;30382;48.802;9.388;2023-06-14T11:34:10;5.43;;;4.93;;
44664;SDS011;30382;48.802;9.388;2023-06-14T11:36:56;7.20;;;5.40;;
44664;SDS011;30382;48.802;9.388;2023-06-14T11:39:43;7.47;;;5.00;;
44664;SDS011;30382;48.802;9.388;2023-06-14T11:42:27;5.53;;;5.03;;
44664;SDS011;30382;48.802;9.388;2023-06-14T11:45:12;5.20;;;4.80;;
44664;SDS011;30382;48.802;9.388;2023-06-14T11:47:58;5.10;;;4.40;;
44664;SDS011;30382;48.802;9.388;2023-06-14T11:50:42;7.05;;;4.90;;
44664;SDS011;30382;48.802;9.388;2023-06-14T11:53:27;4.97;;;4.47;;
44664;SDS011;30382;48.802;9.388;2023-06-14T11:56:11;6.60;;;5.43;;
44664;SDS011;30382;48.802;9.388;2023-06-14T11:58:55;6.20;;;4.90;;
44664;SDS011;30382;48.802;9.388;2023-06-14T12:01:42;5.38;;;4.80;;
44664;SDS011;30382;48.802;9.388;2023-06-14T12:04:27;5.93;;;5.20;;
44664;SDS011;30382;48.802;9.388;2023-06-14T12:23:47;5.20;;;4.70;;
44664;SDS011;30382;48.802;9.388;2023-06-14T12:34:46;5.00;;;4.50;;
44664;SDS011;30382;48.802;9.388;2023-06-14T12:37:30;6.10;;;5.00;;
44664;SDS011;30382;48.802;9.388;2023-06-14T12:40:14;5.63;;;4.90;;
44664;SDS011;30382;48.802;9.388;2023-06-14T12:42:58;5.30;;;4.80;;
44664;SDS011;30382;48.802;9.388;2023-06-14T12:45:43;6.18;;;5.57;;
44664;SDS011;30382;48.802;9.388;2023-06-14T12:48:27;5.47;;;5.00;;
44664;SDS011;30382;48.802;9.388;2023-06-14T12:51:11;5.60;;;4.88;;
44664;SDS011;30382;48.802;9.388;2023-06-14T12:53:56;6.05;;;4.80;;
44664;SDS011;30382;48.802;9.388;2023-06-14T12:56:40;5.30;;;4.80;;
44664;SDS011;30382;48.802;9.388;2023-06-14T12:59:26;5.57;;;5.18;;
44664;SDS011;30382;48.802;9.388;2023-06-14T13:02:17;5.80;;;5.20;;
44664;SDS011;30382;48.802;9.388;2023-06-14T13:05:02;4.70;;;4.30;;
44664;SDS011;30382;48.802;9.388;2023-06-14T13:10:32;5.47;;;4.68;;
44664;SDS011;30382;48.802;9.388;2023-06-14T13:13:16;5.88;;;4.90;;
44664;SDS011;30382;48.802;9.388;2023-06-14T13:16:00;4.97;;;4.47;;
44664;SDS011;30382;48.802;9.388;2023-06-14T13:18:45;5.60;;;4.80;;
44664;SDS011;30382;48.802;9.388;2023-06-14T13:21:29;4.82;;;4.43;;
44664;SDS011;30382;48.802;9.388;2023-06-14T13:24:14;6.50;;;5.20;;
44664;SDS011;30382;48.802;9.388;2023-06-14T13:26:58;5.95;;;4.53;;
44664;SDS011;30382;48.802;9.388;2023-06-14T13:32:27;4.70;;;4.40;;
44664;SDS011;30382;48.802;9.388;2023-06-14T13:37:56;6.93;;;5.00;;
44664;SDS011;30382;48.802;9.388;2023-06-14T13:40:41;6.90;;;5.60;;
44664;SDS011;30382;48.802;9.388;2023-06-14T13:43:25;5.80;;;5.30;;
44664;SDS011;30382;48.802;9.388;2023-06-14T13:46:09;5.53;;;4.90;;
44664;SDS011;30382;48.802;9.388;2023-06-14T13:48:53;5.57;;;5.07;;
44664;SDS011;30382;48.802;9.388;2023-06-14T13:51:38;5.00;;;4.47;;
44664;SDS011;30382;48.802;9.388;2023-06-14T13:54:22;8.57;;;5.53;;
44664;SDS011;30382;48.802;9.388;2023-06-14T13:57:07;7.77;;;5.70;;
44664;SDS011;30382;48.802;9.388;2023-06-14T13:59:51;5.00;;;4.60;;
44664;SDS011;30382;48.802;9.388;2023-06-14T14:02:39;4.50;;;4.20;;
44664;SDS011;30382;48.802;9.388;2023-06-14T14:08:13;4.22;;;4.03;;
44664;SDS011;30382;48.802;9.388;2023-06-14T14:13:42;5.38;;;4.50;;
44664;SDS011;30382;48.802;9.388;2023-06-14T14:16:26;5.97;;;5.38;;
44664;SDS011;30382;48.802;9.388;2023-06-14T14:19:10;4.75;;;4.25;;
44664;SDS011;30382;48.802;9.388;2023-06-14T14:21:55;5.32;;;4.78;;
44664;SDS011;30382;48.802;9.388;2023-06-14T14:27:23;5.30;;;4.80;;
44664;SDS011;30382;48.802;9.388;2023-06-14T14:38:20;5.28;;;4.07;;
44664;SDS011;30382;48.802;9.388;2023-06-14T14:41:05;4.65;;;4.25;;
44664;SDS011;30382;48.802;9.388;2023-06-14T14:46:33;5.47;;;4.70;;
44664;SDS011;30382;48.802;9.388;2023-06-14T14:49:18;6.75;;;4.43;;
44664;SDS011;30382;48.802;9.388;2023-06-14T14:52:02;5.70;;;4.40;;
44664;SDS011;30382;48.802;9.388;2023-06-14T15:03:00;5.03;;;4.53;;
44664;SDS011;30382;48.802;9.388;2023-06-14T15:05:44;4.63;;;4.32;;
44664;SDS011;30382;48.802;9.388;2023-06-14T15:08:29;6.85;;;4.22;;
44664;SDS011;30382;48.802;9.388;2023-06-14T15:11:13;5.38;;;4.45;;
44664;SDS011;30382;48.802;9.388;2023-06-14T15:13:58;5.83;;;4.10;;
44664;SDS011;30382;48.802;9.388;2023-06-14T15:16:42;6.07;;;4.90;;
44664;SDS011;30382;48.802;9.388;2023-06-14T15:19:26;4.30;;;4.00;;
44664;SDS011;30382;48.802;9.388;2023-06-14T15:22:11;6.13;;;5.07;;
44664;SDS011;30382;48.802;9.388;2023-06-14T15:24:55;8.40;;;4.80;;
44664;SDS011;30382;48.802;9.388;2023-06-14T15:27:39;5.78;;;4.20;;
44664;SDS011;30382;48.802;9.388;2023-06-14T15:38:37;5.10;;;4.70;;
44664;SDS011;30382;48.802;9.388;2023-06-14T15:41:21;4.50;;;4.20;;
44664;SDS011;30382;48.802;9.388;2023-06-14T15:44:06;4.60;;;4.20;;
44664;SDS011;30382;48.802;9.388;2023-06-14T15:46:50;5.53;;;4.23;;
44664;SDS011;30382;48.802;9.388;2023-06-14T15:49:34;5.83;;;4.43;;
44664;SDS011;30382;48.802;9.388;2023-06-14T15:52:19;5.00;;;3.87;;
44664;SDS011;30382;48.802;9.388;2023-06-14T15:55:03;4.77;;;4.47;;
44664;SDS011;30382;48.802;9.388;2023-06-14T15:57:48;5.13;;;4.67;;
44664;SDS011;30382;48.802;9.388;2023-06-14T16:00:32;4.97;;;4.67;;
44664;SDS011;30382;48.802;9.388;2023-06-14T16:03:16;5.80;;;5.35;;
44664;SDS011;30382;48.802;9.388;2023-06-14T16:06:01;4.93;;;4.53;;
44664;SDS011;30382;48.802;9.388;2023-06-14T16:08:45;5.37;;;4.97;;
44664;SDS011;30382;48.802;9.388;2023-06-14T16:11:29;4.43;;;4.03;;
44664;SDS011;30382;48.802;9.388;2023-06-14T16:16:58;6.90;;;4.20;;
44664;SDS011;30382;48.802;9.388;2023-06-14T16:19:42;5.63;;;4.17;;
44664;SDS011;30382;48.802;9.388;2023-06-14T16:22:26;7.07;;;4.87;;
44664;SDS011;30382;48.802;9.388;2023-06-14T16:25:11;5.70;;;4.60;;
44664;SDS011;30382;48.802;9.388;2023-06-14T16:27:55;5.73;;;5.10;;
44664;SDS011;30382;48.802;9.388;2023-06-14T16:30:40;4.70;;;4.33;;
44664;SDS011;30382;48.802;9.388;2023-06-14T16:33:24;4.93;;;4.40;;
44664;SDS011;30382;48.802;9.388;2023-06-14T16:36:08;5.40;;;5.00;;
44664;SDS011;30382;48.802;9.388;2023-06-14T16:38:52;4.67;;;4.17;;
44664;SDS011;30382;48.802;9.388;2023-06-14T16:41:37;5.10;;;4.40;;
44664;SDS011;30382;48.802;9.388;2023-06-14T16:44:21;4.77;;;4.33;;
44664;SDS011;30382;48.802;9.388;2023-06-14T16:47:06;8.37;;;4.70;;
44664;SDS011;30382;48.802;9.388;2023-06-14T16:49:52;9.23;;;4.60;;
44664;SDS011;30382;48.802;9.388;2023-06-14T16:52:36;5.40;;;4.67;;
44664;SDS011;30382;48.802;9.388;2023-06-14T16:55:20;10.70;;;4.07;;
44664;SDS011;30382;48.802;9.388;2023-06-14T16:58:05;4.20;;;3.90;;
44664;SDS011;30382;48.802;9.388;2023-06-14T17:00:49;6.03;;;4.70;;
44664;SDS011;30382;48.802;9.388;2023-06-14T17:03:33;5.10;;;4.60;;
44664;SDS011;30382;48.802;9.388;2023-06-14T17:06:18;4.83;;;4.43;;
44664;SDS011;30382;48.802;9.388;2023-06-14T17:09:05;6.47;;;4.63;;
44664;SDS011;30382;48.802;9.388;2023-06-14T17:11:49;6.43;;;4.67;;
44664;SDS011;30382;48.802;9.388;2023-06-14T17:14:33;4.60;;;4.03;;
44664;SDS011;30382;48.802;9.388;2023-06-14T17:17:18;4.87;;;4.47;;
44664;SDS011;30382;48.802;9.388;2023-06-14T17:20:03;7.50;;;5.33;;
44664;SDS011;30382;48.802;9.388;2023-06-14T17:22:47;5.13;;;4.60;;
44664;SDS011;30382;48.802;9.388;2023-06-14T17:25:31;4.90;;;4.50;;
44664;SDS011;30382;48.802;9.388;2023-06-14T17:28:16;4.43;;;4.13;;
44664;SDS011;30382;48.802;9.388;2023-06-14T17:31:01;4.90;;;4.40;;
44664;SDS011;30382;48.802;9.388;2023-06-14T17:33:45;8.03;;;4.63;;
44664;SDS011;30382;48.802;9.388;2023-06-14T17:36:29;4.47;;;4.17;;
44664;SDS011;30382;48.802;9.388;2023-06-14T17:39:14;4.37;;;4.07;;
44664;SDS011;30382;48.802;9.388;2023-06-14T17:41:58;5.57;;;4.70;;
44664;SDS011;30382;48.802;9.388;2023-06-14T17:44:42;5.07;;;4.37;;
44664;SDS011;30382;48.802;9.388;2023-06-14T17:47:26;4.63;;;4.23;;
44664;SDS011;30382;48.802;9.388;2023-06-14T17:50:11;4.90;;;4.50;;
44664;SDS011;30382;48.802;9.388;2023-06-14T17:52:55;4.70;;;4.30;;
44664;SDS011;30382;48.802;9.388;2023-06-14T17:55:39;8.57;;;4.70;;
44664;SDS011;30382;48.802;9.388;2023-06-14T17:58:23;5.93;;;5.17;;
44664;SDS011;30382;48.802;9.388;2023-06-14T18:01:08;5.40;;;4.90;;
44664;SDS011;30382;48.802;9.388;2023-06-14T18:03:52;4.77;;;4.40;;
44664;SDS011;30382;48.802;9.388;2023-06-14T18:06:37;5.23;;;4.30;;
44664;SDS011;30382;48.802;9.388;2023-06-14T18:09:21;8.20;;;4.40;;
44664;SDS011;30382;48.802;9.388;2023-06-14T18:12:06;4.20;;;3.80;;
44664;SDS011;30382;48.802;9.388;2023-06-14T18:14:51;4.00;;;3.70;;
44664;SDS011;30382;48.802;9.388;2023-06-14T18:17:36;4.77;;;4.37;;
44664;SDS011;30382;48.802;9.388;2023-06-14T18:20:21;4.90;;;4.40;;
44664;SDS011;30382;48.802;9.388;2023-06-14T18:23:07;6.00;;;4.67;;
44664;SDS011;30382;48.802;9.388;2023-06-14T18:25:51;5.03;;;4.57;;
44664;SDS011;30382;48.802;9.388;2023-06-14T18:28:38;5.23;;;4.73;;
44664;SDS011;30382;48.802;9.388;2023-06-14T18:31:22;4.20;;;3.90;;
44664;SDS011;30382;48.802;9.388;2023-06-14T18:34:08;5.13;;;4.60;;
44664;SDS011;30382;48.802;9.388;2023-06-14T18:36:55;4.63;;;4.13;;
44664;SDS011;30382;48.802;9.388;2023-06-14T18:39:41;4.50;;;4.10;;
44664;SDS011;30382;48.802;9.388;2023-06-14T18:42:26;6.10;;;4.60;;
44664;SDS011;30382;48.802;9.388;2023-06-14T18:45:10;5.00;;;4.50;;
44664;SDS011;30382;48.802;9.388;2023-06-14T18:47:55;8.70;;;4.70;;
44664;SDS011;30382;48.802;9.388;2023-06-14T18:50:40;6.30;;;4.47;;
44664;SDS011;30382;48.802;9.388;2023-06-14T18:53:30;4.20;;;3.90;;
44664;SDS011;30382;48.802;9.388;2023-06-14T18:59:00;7.80;;;4.73;;